sensor_id;sensor_type;location;lat;lon;timestamp;P1;durP1;ratioP1;P2;durP2;ratioP2
38023;SDS011;23834;48.080;11.682;2023-04-16T00:00:57;0.63;;;0.63;;
38023;SDS011;23834;48.080;11.682;2023-04-16T00:03:22;0.60;;;0.60;;
38023;SDS011;23834;48.080;11.682;2023-04-16T00:05:47;0.70;;;0.70;;
38023;SDS011;23834;48.080;11.682;2023-04-16T00:08:13;0.80;;;0.63;;
38023;SDS011;23834;48.080;11.682;2023-04-16T00:10:38;1.10;;;1.00;;
38023;SDS011;23834;48.080;11.682;2023-04-16T00:13:03;0.90;;;0.90;;
38023;SDS011;23834;48.080;11.682;2023-04-16T00:15:28;0.73;;;0.73;;
38023;SDS011;23834;48.080;11.682;2023-04-16T00:17:53;0.80;;;0.80;;
38023;SDS011;23834;48.080;11.682;2023-04-16T00:20:20;0.73;;;0.70;;
38023;SDS011;23834;48.080;11.682;2023-04-16T00:22:45;1.40;;;0.60;;
38023;SDS011;23834;48.080;11.682;2023-04-16T00:25:10;0.60;;;0.60;;
38023;SDS011;23834;48.080;11.682;2023-04-16T00:27:35;1.13;;;1.00;;
38023;SDS011;23834;48.080;11.682;2023-04-16T00:30:00;0.93;;;0.93;;
38023;SDS011;23834;48.080;11.682;2023-04-16T00:32:25;0.60;;;0.50;;
38023;SDS011;23834;48.080;11.682;2023-04-16T00:34:51;0.63;;;0.63;;
38023;SDS011;23834;48.080;11.682;2023-04-16T00:37:16;0.73;;;0.70;;
38023;SDS011;23834;48.080;11.682;2023-04-16T00:39:41;0.70;;;0.70;;
38023;SDS011;23834;48.080;11.682;2023-04-16T00:42:06;1.03;;;0.70;;
38023;SDS011;23834;48.080;11.682;2023-04-16T00:44:31;0.73;;;0.70;;
38023;SDS011;23834;48.080;11.682;2023-04-16T00:46:59;0.60;;;0.60;;
38023;SDS011;23834;48.080;11.682;2023-04-16T00:49:25;0.77;;;0.60;;
38023;SDS011;23834;48.080;11.682;2023-04-16T00:51:51;1.00;;;0.87;;
38023;SDS011;23834;48.080;11.682;2023-04-16T00:54:16;0.77;;;0.77;;
38023;SDS011;23834;48.080;11.682;2023-04-16T00:56:41;1.03;;;0.70;;
38023;SDS011;23834;48.080;11.682;2023-04-16T00:59:07;0.63;;;0.60;;
38023;SDS011;23834;48.080;11.682;2023-04-16T01:01:32;0.73;;;0.70;;
38023;SDS011;23834;48.080;11.682;2023-04-16T01:03:57;0.80;;;0.80;;
38023;SDS011;23834;48.080;11.682;2023-04-16T01:06:22;0.70;;;0.70;;
38023;SDS011;23834;48.080;11.682;2023-04-16T01:08:48;1.20;;;0.80;;
38023;SDS011;23834;48.080;11.682;2023-04-16T01:11:13;0.83;;;0.70;;
38023;SDS011;23834;48.080;11.682;2023-04-16T01:13:39;2.33;;;0.73;;
38023;SDS011;23834;48.080;11.682;2023-04-16T01:16:07;0.77;;;0.67;;
38023;SDS011;23834;48.080;11.682;2023-04-16T01:18:33;0.80;;;0.80;;
38023;SDS011;23834;48.080;11.682;2023-04-16T01:20:58;0.67;;;0.67;;
38023;SDS011;23834;48.080;11.682;2023-04-16T01:23:23;0.70;;;0.70;;
38023;SDS011;23834;48.080;11.682;2023-04-16T01:25:48;1.00;;;0.70;;
38023;SDS011;23834;48.080;11.682;2023-04-16T01:28:14;0.90;;;0.67;;
38023;SDS011;23834;48.080;11.682;2023-04-16T01:30:39;0.73;;;0.70;;
38023;SDS011;23834;48.080;11.682;2023-04-16T01:33:05;0.50;;;0.50;;
38023;SDS011;23834;48.080;11.682;2023-04-16T01:35:31;0.60;;;0.60;;
38023;SDS011;23834;48.080;11.682;2023-04-16T01:37:56;1.37;;;0.80;;
38023;SDS011;23834;48.080;11.682;2023-04-16T01:40:21;0.70;;;0.60;;
38023;SDS011;23834;48.080;11.682;2023-04-16T01:42:46;0.53;;;0.50;;
38023;SDS011;23834;48.080;11.682;2023-04-16T01:45:12;0.80;;;0.80;;
38023;SDS011;23834;48.080;11.682;2023-04-16T01:47:37;0.63;;;0.63;;
38023;SDS011;23834;48.080;11.682;2023-04-16T01:50:02;0.60;;;0.60;;
38023;SDS011;23834;48.080;11.682;2023-04-16T01:52:27;0.90;;;0.70;;
38023;SDS011;23834;48.080;11.682;2023-04-16T01:54:53;0.53;;;0.50;;
38023;SDS011;23834;48.080;11.682;2023-04-16T01:57:18;0.77;;;0.77;;
38023;SDS011;23834;48.080;11.682;2023-04-16T01:59:43;0.70;;;0.70;;
38023;SDS011;23834;48.080;11.682;2023-04-16T02:02:09;1.40;;;0.70;;
38023;SDS011;23834;48.080;11.682;2023-04-16T02:04:37;0.80;;;0.60;;
38023;SDS011;23834;48.080;11.682;2023-04-16T02:07:03;0.70;;;0.70;;
38023;SDS011;23834;48.080;11.682;2023-04-16T02:09:28;0.70;;;0.60;;
38023;SDS011;23834;48.080;11.682;2023-04-16T02:11:53;1.47;;;0.50;;
38023;SDS011;23834;48.080;11.682;2023-04-16T02:14:19;0.60;;;0.60;;
38023;SDS011;23834;48.080;11.682;2023-04-16T02:16:46;0.70;;;0.60;;
38023;SDS011;23834;48.080;11.682;2023-04-16T02:19:11;0.53;;;0.53;;
38023;SDS011;23834;48.080;11.682;2023-04-16T02:21:36;0.60;;;0.60;;
38023;SDS011;23834;48.080;11.682;2023-04-16T02:24:01;0.60;;;0.60;;
38023;SDS011;23834;48.080;11.682;2023-04-16T02:26:26;0.73;;;0.73;;
38023;SDS011;23834;48.080;11.682;2023-04-16T02:28:53;0.93;;;0.70;;
38023;SDS011;23834;48.080;11.682;2023-04-16T02:31:18;0.70;;;0.70;;
38023;SDS011;23834;48.080;11.682;2023-04-16T02:33:43;0.70;;;0.50;;
38023;SDS011;23834;48.080;11.682;2023-04-16T02:36:09;0.70;;;0.70;;
38023;SDS011;23834;48.080;11.682;2023-04-16T02:38:35;0.80;;;0.60;;
38023;SDS011;23834;48.080;11.682;2023-04-16T02:41:01;0.50;;;0.50;;
38023;SDS011;23834;48.080;11.682;2023-04-16T02:43:26;0.57;;;0.57;;
38023;SDS011;23834;48.080;11.682;2023-04-16T02:45:52;0.60;;;0.60;;
38023;SDS011;23834;48.080;11.682;2023-04-16T02:48:17;0.60;;;0.60;;
38023;SDS011;23834;48.080;11.682;2023-04-16T02:50:42;0.60;;;0.60;;
38023;SDS011;23834;48.080;11.682;2023-04-16T02:53:07;0.80;;;0.60;;
38023;SDS011;23834;48.080;11.682;2023-04-16T02:55:34;0.60;;;0.60;;
38023;SDS011;23834;48.080;11.682;2023-04-16T02:57:59;0.73;;;0.73;;
38023;SDS011;23834;48.080;11.682;2023-04-16T03:00:24;0.70;;;0.70;;
38023;SDS011;23834;48.080;11.682;2023-04-16T03:02:50;0.70;;;0.70;;
38023;SDS011;23834;48.080;11.682;2023-04-16T03:05:15;0.60;;;0.60;;
38023;SDS011;23834;48.080;11.682;2023-04-16T03:07:40;0.60;;;0.57;;
38023;SDS011;23834;48.080;11.682;2023-04-16T03:10:05;0.90;;;0.70;;
38023;SDS011;23834;48.080;11.682;2023-04-16T03:12:31;0.50;;;0.40;;
38023;SDS011;23834;48.080;11.682;2023-04-16T03:14:56;0.60;;;0.60;;
38023;SDS011;23834;48.080;11.682;2023-04-16T03:17:21;0.80;;;0.80;;
38023;SDS011;23834;48.080;11.682;2023-04-16T03:19:46;0.73;;;0.63;;
38023;SDS011;23834;48.080;11.682;2023-04-16T03:22:12;0.50;;;0.50;;
38023;SDS011;23834;48.080;11.682;2023-04-16T03:24:37;0.50;;;0.50;;
38023;SDS011;23834;48.080;11.682;2023-04-16T03:27:02;0.50;;;0.50;;
38023;SDS011;23834;48.080;11.682;2023-04-16T03:29:27;0.50;;;0.47;;
38023;SDS011;23834;48.080;11.682;2023-04-16T03:31:52;0.90;;;0.73;;
38023;SDS011;23834;48.080;11.682;2023-04-16T03:34:17;0.50;;;0.43;;
38023;SDS011;23834;48.080;11.682;2023-04-16T03:36:43;1.33;;;0.60;;
38023;SDS011;23834;48.080;11.682;2023-04-16T03:39:08;0.50;;;0.50;;
38023;SDS011;23834;48.080;11.682;2023-04-16T03:41:33;0.67;;;0.60;;
38023;SDS011;23834;48.080;11.682;2023-04-16T03:43:58;0.53;;;0.53;;
38023;SDS011;23834;48.080;11.682;2023-04-16T03:46:23;0.60;;;0.53;;
38023;SDS011;23834;48.080;11.682;2023-04-16T03:48:48;0.60;;;0.60;;
38023;SDS011;23834;48.080;11.682;2023-04-16T03:51:14;1.23;;;0.70;;
38023;SDS011;23834;48.080;11.682;2023-04-16T03:53:39;0.50;;;0.50;;
38023;SDS011;23834;48.080;11.682;2023-04-16T03:56:04;0.70;;;0.50;;
38023;SDS011;23834;48.080;11.682;2023-04-16T03:58:30;0.40;;;0.40;;
38023;SDS011;23834;48.080;11.682;2023-04-16T04:00:55;0.73;;;0.50;;
38023;SDS011;23834;48.080;11.682;2023-04-16T04:03:20;0.70;;;0.70;;
38023;SDS011;23834;48.080;11.682;2023-04-16T04:05:45;0.70;;;0.70;;
38023;SDS011;23834;48.080;11.682;2023-04-16T04:08:10;0.80;;;0.43;;
38023;SDS011;23834;48.080;11.682;2023-04-16T04:10:36;0.50;;;0.50;;
38023;SDS011;23834;48.080;11.682;2023-04-16T04:13:02;0.50;;;0.50;;
38023;SDS011;23834;48.080;11.682;2023-04-16T04:15:27;0.73;;;0.40;;
38023;SDS011;23834;48.080;11.682;2023-04-16T04:17:53;0.60;;;0.60;;
38023;SDS011;23834;48.080;11.682;2023-04-16T04:20:18;0.70;;;0.60;;
38023;SDS011;23834;48.080;11.682;2023-04-16T04:22:43;0.60;;;0.50;;
38023;SDS011;23834;48.080;11.682;2023-04-16T04:25:09;0.50;;;0.50;;
38023;SDS011;23834;48.080;11.682;2023-04-16T04:27:34;0.50;;;0.50;;
38023;SDS011;23834;48.080;11.682;2023-04-16T04:29:59;1.20;;;0.60;;
38023;SDS011;23834;48.080;11.682;2023-04-16T04:32:24;0.50;;;0.50;;
38023;SDS011;23834;48.080;11.682;2023-04-16T04:34:50;0.70;;;0.60;;
38023;SDS011;23834;48.080;11.682;2023-04-16T04:37:15;0.57;;;0.47;;
38023;SDS011;23834;48.080;11.682;2023-04-16T04:39:40;0.50;;;0.50;;
38023;SDS011;23834;48.080;11.682;2023-04-16T04:42:07;0.60;;;0.60;;
38023;SDS011;23834;48.080;11.682;2023-04-16T04:44:32;0.67;;;0.67;;
38023;SDS011;23834;48.080;11.682;2023-04-16T04:46:57;0.60;;;0.60;;
38023;SDS011;23834;48.080;11.682;2023-04-16T04:49:22;0.90;;;0.50;;
38023;SDS011;23834;48.080;11.682;2023-04-16T04:51:48;0.60;;;0.60;;
38023;SDS011;23834;48.080;11.682;2023-04-16T04:54:13;0.50;;;0.50;;
38023;SDS011;23834;48.080;11.682;2023-04-16T04:56:38;0.70;;;0.63;;
38023;SDS011;23834;48.080;11.682;2023-04-16T04:59:03;0.60;;;0.60;;
38023;SDS011;23834;48.080;11.682;2023-04-16T05:01:29;0.70;;;0.53;;
38023;SDS011;23834;48.080;11.682;2023-04-16T05:03:54;0.50;;;0.50;;
38023;SDS011;23834;48.080;11.682;2023-04-16T05:06:19;0.70;;;0.70;;
38023;SDS011;23834;48.080;11.682;2023-04-16T05:08:45;0.50;;;0.50;;
38023;SDS011;23834;48.080;11.682;2023-04-16T05:11:10;0.67;;;0.50;;
38023;SDS011;23834;48.080;11.682;2023-04-16T05:13:35;0.60;;;0.60;;
38023;SDS011;23834;48.080;11.682;2023-04-16T05:16:00;0.50;;;0.40;;
38023;SDS011;23834;48.080;11.682;2023-04-16T05:18:26;0.60;;;0.60;;
38023;SDS011;23834;48.080;11.682;2023-04-16T05:20:51;0.50;;;0.50;;
38023;SDS011;23834;48.080;11.682;2023-04-16T05:23:16;0.53;;;0.53;;
38023;SDS011;23834;48.080;11.682;2023-04-16T05:25:41;0.60;;;0.47;;
38023;SDS011;23834;48.080;11.682;2023-04-16T05:28:07;0.60;;;0.50;;
38023;SDS011;23834;48.080;11.682;2023-04-16T05:30:32;0.50;;;0.50;;
38023;SDS011;23834;48.080;11.682;2023-04-16T05:32:57;0.80;;;0.60;;
38023;SDS011;23834;48.080;11.682;2023-04-16T05:35:22;0.50;;;0.40;;
38023;SDS011;23834;48.080;11.682;2023-04-16T05:37:47;0.60;;;0.60;;
38023;SDS011;23834;48.080;11.682;2023-04-16T05:40:13;0.50;;;0.50;;
38023;SDS011;23834;48.080;11.682;2023-04-16T05:42:38;0.60;;;0.60;;
38023;SDS011;23834;48.080;11.682;2023-04-16T05:45:03;0.60;;;0.60;;
38023;SDS011;23834;48.080;11.682;2023-04-16T05:47:29;0.40;;;0.40;;
38023;SDS011;23834;48.080;11.682;2023-04-16T05:49:54;0.47;;;0.47;;
38023;SDS011;23834;48.080;11.682;2023-04-16T05:52:19;0.50;;;0.50;;
38023;SDS011;23834;48.080;11.682;2023-04-16T05:54:45;0.50;;;0.40;;
38023;SDS011;23834;48.080;11.682;2023-04-16T05:57:10;1.17;;;0.60;;
38023;SDS011;23834;48.080;11.682;2023-04-16T05:59:35;0.40;;;0.40;;
38023;SDS011;23834;48.080;11.682;2023-04-16T06:02:01;0.50;;;0.50;;
38023;SDS011;23834;48.080;11.682;2023-04-16T06:04:26;0.50;;;0.50;;
38023;SDS011;23834;48.080;11.682;2023-04-16T06:06:51;0.60;;;0.50;;
38023;SDS011;23834;48.080;11.682;2023-04-16T06:09:16;0.67;;;0.67;;
38023;SDS011;23834;48.080;11.682;2023-04-16T06:11:43;0.60;;;0.40;;
38023;SDS011;23834;48.080;11.682;2023-04-16T06:14:08;0.50;;;0.40;;
38023;SDS011;23834;48.080;11.682;2023-04-16T06:16:33;0.80;;;0.60;;
38023;SDS011;23834;48.080;11.682;2023-04-16T06:18:58;0.53;;;0.37;;
38023;SDS011;23834;48.080;11.682;2023-04-16T06:21:23;0.50;;;0.50;;
38023;SDS011;23834;48.080;11.682;2023-04-16T06:23:50;0.50;;;0.50;;
38023;SDS011;23834;48.080;11.682;2023-04-16T06:26:15;0.50;;;0.50;;
38023;SDS011;23834;48.080;11.682;2023-04-16T06:28:40;0.50;;;0.40;;
38023;SDS011;23834;48.080;11.682;2023-04-16T06:31:05;0.50;;;0.40;;
38023;SDS011;23834;48.080;11.682;2023-04-16T06:33:30;0.67;;;0.50;;
38023;SDS011;23834;48.080;11.682;2023-04-16T06:35:55;0.40;;;0.30;;
38023;SDS011;23834;48.080;11.682;2023-04-16T06:38:21;1.03;;;0.70;;
38023;SDS011;23834;48.080;11.682;2023-04-16T06:40:47;0.57;;;0.50;;
38023;SDS011;23834;48.080;11.682;2023-04-16T06:43:12;1.27;;;0.70;;
38023;SDS011;23834;48.080;11.682;2023-04-16T06:45:39;2.10;;;0.60;;
38023;SDS011;23834;48.080;11.682;2023-04-16T06:48:05;0.87;;;0.50;;
38023;SDS011;23834;48.080;11.682;2023-04-16T06:50:30;0.60;;;0.60;;
38023;SDS011;23834;48.080;11.682;2023-04-16T06:52:55;0.50;;;0.47;;
38023;SDS011;23834;48.080;11.682;2023-04-16T06:55:20;0.60;;;0.53;;
38023;SDS011;23834;48.080;11.682;2023-04-16T06:57:45;0.60;;;0.60;;
38023;SDS011;23834;48.080;11.682;2023-04-16T07:00:11;1.50;;;0.87;;
38023;SDS011;23834;48.080;11.682;2023-04-16T07:02:36;1.57;;;1.00;;
38023;SDS011;23834;48.080;11.682;2023-04-16T07:05:02;1.10;;;1.00;;
38023;SDS011;23834;48.080;11.682;2023-04-16T07:07:27;1.63;;;0.90;;
38023;SDS011;23834;48.080;11.682;2023-04-16T07:09:52;1.20;;;1.10;;
38023;SDS011;23834;48.080;11.682;2023-04-16T07:12:18;1.23;;;1.10;;
38023;SDS011;23834;48.080;11.682;2023-04-16T07:14:43;0.83;;;0.83;;
38023;SDS011;23834;48.080;11.682;2023-04-16T07:17:09;1.27;;;1.00;;
38023;SDS011;23834;48.080;11.682;2023-04-16T07:19:34;1.13;;;1.03;;
38023;SDS011;23834;48.080;11.682;2023-04-16T07:21:59;1.90;;;1.23;;
38023;SDS011;23834;48.080;11.682;2023-04-16T07:24:25;1.40;;;1.30;;
38023;SDS011;23834;48.080;11.682;2023-04-16T07:26:50;1.27;;;1.00;;
38023;SDS011;23834;48.080;11.682;2023-04-16T07:29:15;1.40;;;1.30;;
38023;SDS011;23834;48.080;11.682;2023-04-16T07:31:40;1.50;;;1.40;;
38023;SDS011;23834;48.080;11.682;2023-04-16T07:34:06;1.10;;;1.10;;
38023;SDS011;23834;48.080;11.682;2023-04-16T07:36:31;1.10;;;0.83;;
38023;SDS011;23834;48.080;11.682;2023-04-16T07:38:56;1.17;;;0.87;;
38023;SDS011;23834;48.080;11.682;2023-04-16T07:41:22;1.57;;;1.00;;
38023;SDS011;23834;48.080;11.682;2023-04-16T07:43:47;2.70;;;1.00;;
38023;SDS011;23834;48.080;11.682;2023-04-16T07:46:12;0.90;;;0.80;;
38023;SDS011;23834;48.080;11.682;2023-04-16T07:48:37;0.90;;;0.90;;
38023;SDS011;23834;48.080;11.682;2023-04-16T07:51:02;0.73;;;0.73;;
38023;SDS011;23834;48.080;11.682;2023-04-16T07:53:28;0.80;;;0.80;;
38023;SDS011;23834;48.080;11.682;2023-04-16T07:55:53;0.70;;;0.70;;
38023;SDS011;23834;48.080;11.682;2023-04-16T07:58:18;1.60;;;0.90;;
38023;SDS011;23834;48.080;11.682;2023-04-16T08:00:43;1.13;;;1.00;;
38023;SDS011;23834;48.080;11.682;2023-04-16T08:03:09;0.83;;;0.83;;
38023;SDS011;23834;48.080;11.682;2023-04-16T08:05:34;1.40;;;1.10;;
38023;SDS011;23834;48.080;11.682;2023-04-16T08:08:00;1.67;;;0.93;;
38023;SDS011;23834;48.080;11.682;2023-04-16T08:10:25;1.07;;;0.97;;
38023;SDS011;23834;48.080;11.682;2023-04-16T08:12:50;1.90;;;1.10;;
38023;SDS011;23834;48.080;11.682;2023-04-16T08:15:15;0.80;;;0.80;;
38023;SDS011;23834;48.080;11.682;2023-04-16T08:17:41;1.93;;;0.90;;
38023;SDS011;23834;48.080;11.682;2023-04-16T08:20:06;1.40;;;1.30;;
38023;SDS011;23834;48.080;11.682;2023-04-16T08:22:31;2.07;;;1.00;;
38023;SDS011;23834;48.080;11.682;2023-04-16T08:24:57;1.70;;;0.97;;
38023;SDS011;23834;48.080;11.682;2023-04-16T08:27:22;1.63;;;0.90;;
38023;SDS011;23834;48.080;11.682;2023-04-16T08:29:47;1.30;;;1.00;;
38023;SDS011;23834;48.080;11.682;2023-04-16T08:32:12;1.50;;;1.10;;
38023;SDS011;23834;48.080;11.682;2023-04-16T08:34:38;1.90;;;1.13;;
38023;SDS011;23834;48.080;11.682;2023-04-16T08:37:03;1.47;;;0.90;;
38023;SDS011;23834;48.080;11.682;2023-04-16T08:39:28;1.63;;;1.30;;
38023;SDS011;23834;48.080;11.682;2023-04-16T08:41:53;1.60;;;1.20;;
38023;SDS011;23834;48.080;11.682;2023-04-16T08:44:20;2.20;;;1.00;;
38023;SDS011;23834;48.080;11.682;2023-04-16T08:46:49;3.90;;;1.60;;
38023;SDS011;23834;48.080;11.682;2023-04-16T08:49:18;1.47;;;1.20;;
38023;SDS011;23834;48.080;11.682;2023-04-16T08:51:44;2.70;;;1.23;;
38023;SDS011;23834;48.080;11.682;2023-04-16T08:54:13;1.10;;;0.90;;
38023;SDS011;23834;48.080;11.682;2023-04-16T08:56:42;1.10;;;1.00;;
38023;SDS011;23834;48.080;11.682;2023-04-16T08:59:07;1.30;;;1.10;;
38023;SDS011;23834;48.080;11.682;2023-04-16T09:01:33;1.30;;;1.20;;
38023;SDS011;23834;48.080;11.682;2023-04-16T09:03:59;1.30;;;1.10;;
38023;SDS011;23834;48.080;11.682;2023-04-16T09:06:27;1.93;;;1.10;;
38023;SDS011;23834;48.080;11.682;2023-04-16T09:08:53;1.20;;;1.10;;
38023;SDS011;23834;48.080;11.682;2023-04-16T09:11:18;1.47;;;1.00;;
38023;SDS011;23834;48.080;11.682;2023-04-16T09:13:44;1.73;;;0.87;;
38023;SDS011;23834;48.080;11.682;2023-04-16T09:16:10;0.70;;;0.60;;
38023;SDS011;23834;48.080;11.682;2023-04-16T09:18:36;2.10;;;0.80;;
38023;SDS011;23834;48.080;11.682;2023-04-16T09:21:01;0.90;;;0.90;;
38023;SDS011;23834;48.080;11.682;2023-04-16T09:23:28;1.17;;;1.00;;
38023;SDS011;23834;48.080;11.682;2023-04-16T09:25:53;1.40;;;1.00;;
38023;SDS011;23834;48.080;11.682;2023-04-16T09:31:08;0.70;;;0.70;;
38023;SDS011;23834;48.080;11.682;2023-04-16T09:33:33;1.40;;;1.10;;
38023;SDS011;23834;48.080;11.682;2023-04-16T09:35:58;1.53;;;0.90;;
38023;SDS011;23834;48.080;11.682;2023-04-16T09:38:24;1.40;;;0.60;;
38023;SDS011;23834;48.080;11.682;2023-04-16T09:41:04;0.63;;;0.63;;
38023;SDS011;23834;48.080;11.682;2023-04-16T09:43:29;2.00;;;0.70;;
38023;SDS011;23834;48.080;11.682;2023-04-16T09:45:55;2.10;;;0.83;;
38023;SDS011;23834;48.080;11.682;2023-04-16T09:48:27;1.33;;;0.83;;
38023;SDS011;23834;48.080;11.682;2023-04-16T09:50:52;0.97;;;0.87;;
38023;SDS011;23834;48.080;11.682;2023-04-16T09:53:24;2.07;;;0.90;;
38023;SDS011;23834;48.080;11.682;2023-04-16T09:55:50;0.90;;;0.70;;
38023;SDS011;23834;48.080;11.682;2023-04-16T09:58:18;0.73;;;0.60;;
38023;SDS011;23834;48.080;11.682;2023-04-16T10:00:44;1.13;;;0.63;;
38023;SDS011;23834;48.080;11.682;2023-04-16T10:03:10;1.20;;;0.83;;
38023;SDS011;23834;48.080;11.682;2023-04-16T10:05:35;0.80;;;0.80;;
38023;SDS011;23834;48.080;11.682;2023-04-16T10:08:01;0.83;;;0.70;;
38023;SDS011;23834;48.080;11.682;2023-04-16T10:10:26;0.90;;;0.90;;
38023;SDS011;23834;48.080;11.682;2023-04-16T10:12:52;2.20;;;0.80;;
38023;SDS011;23834;48.080;11.682;2023-04-16T10:15:18;1.63;;;1.00;;
38023;SDS011;23834;48.080;11.682;2023-04-16T10:17:43;0.83;;;0.60;;
38023;SDS011;23834;48.080;11.682;2023-04-16T10:20:08;1.30;;;0.67;;
38023;SDS011;23834;48.080;11.682;2023-04-16T10:22:33;1.93;;;0.90;;
38023;SDS011;23834;48.080;11.682;2023-04-16T10:24:59;1.33;;;0.60;;
38023;SDS011;23834;48.080;11.682;2023-04-16T10:27:24;1.03;;;0.80;;
38023;SDS011;23834;48.080;11.682;2023-04-16T10:29:50;1.07;;;0.70;;
38023;SDS011;23834;48.080;11.682;2023-04-16T10:32:16;1.67;;;0.70;;
38023;SDS011;23834;48.080;11.682;2023-04-16T10:34:41;1.10;;;0.60;;
38023;SDS011;23834;48.080;11.682;2023-04-16T10:37:06;1.70;;;0.80;;
38023;SDS011;23834;48.080;11.682;2023-04-16T10:39:33;0.83;;;0.60;;
38023;SDS011;23834;48.080;11.682;2023-04-16T10:42:07;0.70;;;0.70;;
38023;SDS011;23834;48.080;11.682;2023-04-16T10:44:33;0.70;;;0.60;;
38023;SDS011;23834;48.080;11.682;2023-04-16T10:46:58;1.37;;;0.53;;
38023;SDS011;23834;48.080;11.682;2023-04-16T10:49:23;0.73;;;0.60;;
38023;SDS011;23834;48.080;11.682;2023-04-16T10:51:52;0.90;;;0.60;;
38023;SDS011;23834;48.080;11.682;2023-04-16T10:54:30;0.50;;;0.50;;
38023;SDS011;23834;48.080;11.682;2023-04-16T10:56:56;1.10;;;0.70;;
38023;SDS011;23834;48.080;11.682;2023-04-16T10:59:22;0.53;;;0.47;;
38023;SDS011;23834;48.080;11.682;2023-04-16T11:01:49;0.50;;;0.50;;
38023;SDS011;23834;48.080;11.682;2023-04-16T11:12:11;0.60;;;0.50;;
38023;SDS011;23834;48.080;11.682;2023-04-16T11:14:36;0.67;;;0.50;;
38023;SDS011;23834;48.080;11.682;2023-04-16T11:17:02;0.77;;;0.50;;
38023;SDS011;23834;48.080;11.682;2023-04-16T11:19:27;0.70;;;0.70;;
38023;SDS011;23834;48.080;11.682;2023-04-16T11:21:53;0.60;;;0.50;;
38023;SDS011;23834;48.080;11.682;2023-04-16T11:24:18;0.63;;;0.40;;
38023;SDS011;23834;48.080;11.682;2023-04-16T11:26:44;0.63;;;0.50;;
38023;SDS011;23834;48.080;11.682;2023-04-16T11:29:13;0.90;;;0.50;;
38023;SDS011;23834;48.080;11.682;2023-04-16T11:31:39;0.50;;;0.50;;
38023;SDS011;23834;48.080;11.682;2023-04-16T11:34:06;0.73;;;0.70;;
38023;SDS011;23834;48.080;11.682;2023-04-16T11:36:42;0.93;;;0.83;;
38023;SDS011;23834;48.080;11.682;2023-04-16T11:39:07;1.43;;;0.63;;
38023;SDS011;23834;48.080;11.682;2023-04-16T11:41:32;0.77;;;0.40;;
38023;SDS011;23834;48.080;11.682;2023-04-16T11:43:57;0.50;;;0.43;;
38023;SDS011;23834;48.080;11.682;2023-04-16T11:46:23;1.73;;;0.60;;
38023;SDS011;23834;48.080;11.682;2023-04-16T11:49:01;0.50;;;0.40;;
38023;SDS011;23834;48.080;11.682;2023-04-16T11:51:26;1.37;;;0.50;;
38023;SDS011;23834;48.080;11.682;2023-04-16T11:53:52;0.60;;;0.50;;
38023;SDS011;23834;48.080;11.682;2023-04-16T11:56:24;0.40;;;0.40;;
38023;SDS011;23834;48.080;11.682;2023-04-16T11:59:09;1.40;;;0.47;;
38023;SDS011;23834;48.080;11.682;2023-04-16T12:01:35;1.27;;;0.60;;
38023;SDS011;23834;48.080;11.682;2023-04-16T12:04:01;1.13;;;0.40;;
38023;SDS011;23834;48.080;11.682;2023-04-16T12:06:27;0.80;;;0.70;;
38023;SDS011;23834;48.080;11.682;2023-04-16T12:08:52;2.17;;;0.67;;
38023;SDS011;23834;48.080;11.682;2023-04-16T12:11:17;0.60;;;0.50;;
38023;SDS011;23834;48.080;11.682;2023-04-16T12:13:46;1.30;;;0.43;;
38023;SDS011;23834;48.080;11.682;2023-04-16T12:16:27;0.80;;;0.80;;
38023;SDS011;23834;48.080;11.682;2023-04-16T12:18:59;1.90;;;0.60;;
38023;SDS011;23834;48.080;11.682;2023-04-16T12:21:34;1.23;;;0.80;;
38023;SDS011;23834;48.080;11.682;2023-04-16T12:23:59;1.37;;;0.70;;
38023;SDS011;23834;48.080;11.682;2023-04-16T12:26:25;0.67;;;0.60;;
38023;SDS011;23834;48.080;11.682;2023-04-16T12:28:50;0.70;;;0.70;;
38023;SDS011;23834;48.080;11.682;2023-04-16T12:31:16;0.80;;;0.80;;
38023;SDS011;23834;48.080;11.682;2023-04-16T12:33:41;0.50;;;0.50;;
38023;SDS011;23834;48.080;11.682;2023-04-16T12:36:17;0.60;;;0.60;;
38023;SDS011;23834;48.080;11.682;2023-04-16T12:38:42;0.50;;;0.50;;
38023;SDS011;23834;48.080;11.682;2023-04-16T12:41:07;0.70;;;0.70;;
38023;SDS011;23834;48.080;11.682;2023-04-16T12:43:33;0.73;;;0.73;;
38023;SDS011;23834;48.080;11.682;2023-04-16T12:45:58;0.70;;;0.50;;
38023;SDS011;23834;48.080;11.682;2023-04-16T12:48:23;0.60;;;0.60;;
38023;SDS011;23834;48.080;11.682;2023-04-16T12:50:49;0.77;;;0.63;;
38023;SDS011;23834;48.080;11.682;2023-04-16T12:53:17;0.93;;;0.67;;
38023;SDS011;23834;48.080;11.682;2023-04-16T12:55:42;0.90;;;0.60;;
38023;SDS011;23834;48.080;11.682;2023-04-16T12:58:09;0.77;;;0.60;;
38023;SDS011;23834;48.080;11.682;2023-04-16T13:00:34;0.93;;;0.60;;
38023;SDS011;23834;48.080;11.682;2023-04-16T13:02:59;0.67;;;0.50;;
38023;SDS011;23834;48.080;11.682;2023-04-16T13:05:25;0.60;;;0.60;;
38023;SDS011;23834;48.080;11.682;2023-04-16T13:07:50;1.13;;;0.63;;
38023;SDS011;23834;48.080;11.682;2023-04-16T13:10:15;2.30;;;0.60;;
38023;SDS011;23834;48.080;11.682;2023-04-16T13:12:41;0.67;;;0.53;;
38023;SDS011;23834;48.080;11.682;2023-04-16T13:15:06;0.50;;;0.40;;
38023;SDS011;23834;48.080;11.682;2023-04-16T13:17:31;1.17;;;0.70;;
38023;SDS011;23834;48.080;11.682;2023-04-16T13:19:57;0.80;;;0.50;;
38023;SDS011;23834;48.080;11.682;2023-04-16T13:22:22;0.50;;;0.50;;
38023;SDS011;23834;48.080;11.682;2023-04-16T13:24:48;0.50;;;0.40;;
38023;SDS011;23834;48.080;11.682;2023-04-16T13:27:13;0.60;;;0.60;;
38023;SDS011;23834;48.080;11.682;2023-04-16T13:29:40;0.73;;;0.63;;
38023;SDS011;23834;48.080;11.682;2023-04-16T13:32:05;0.97;;;0.67;;
38023;SDS011;23834;48.080;11.682;2023-04-16T13:34:30;0.80;;;0.60;;
38023;SDS011;23834;48.080;11.682;2023-04-16T13:36:55;0.50;;;0.50;;
38023;SDS011;23834;48.080;11.682;2023-04-16T13:39:20;1.37;;;0.70;;
38023;SDS011;23834;48.080;11.682;2023-04-16T13:41:46;2.53;;;0.80;;
38023;SDS011;23834;48.080;11.682;2023-04-16T13:44:12;0.50;;;0.50;;
38023;SDS011;23834;48.080;11.682;2023-04-16T13:46:38;0.80;;;0.50;;
38023;SDS011;23834;48.080;11.682;2023-04-16T13:49:03;1.00;;;0.63;;
38023;SDS011;23834;48.080;11.682;2023-04-16T13:51:28;0.60;;;0.53;;
38023;SDS011;23834;48.080;11.682;2023-04-16T13:53:54;0.70;;;0.50;;
38023;SDS011;23834;48.080;11.682;2023-04-16T13:56:22;0.93;;;0.53;;
38023;SDS011;23834;48.080;11.682;2023-04-16T13:58:47;0.60;;;0.50;;
38023;SDS011;23834;48.080;11.682;2023-04-16T14:01:12;0.70;;;0.50;;
38023;SDS011;23834;48.080;11.682;2023-04-16T14:03:38;0.63;;;0.60;;
38023;SDS011;23834;48.080;11.682;2023-04-16T14:06:04;0.87;;;0.60;;
38023;SDS011;23834;48.080;11.682;2023-04-16T14:08:30;0.77;;;0.77;;
38023;SDS011;23834;48.080;11.682;2023-04-16T14:10:55;1.40;;;0.60;;
38023;SDS011;23834;48.080;11.682;2023-04-16T14:13:21;0.70;;;0.57;;
38023;SDS011;23834;48.080;11.682;2023-04-16T14:15:46;0.93;;;0.60;;
38023;SDS011;23834;48.080;11.682;2023-04-16T14:18:11;0.63;;;0.60;;
38023;SDS011;23834;48.080;11.682;2023-04-16T14:20:37;0.50;;;0.50;;
38023;SDS011;23834;48.080;11.682;2023-04-16T14:23:03;0.50;;;0.50;;
38023;SDS011;23834;48.080;11.682;2023-04-16T14:25:29;0.50;;;0.50;;
38023;SDS011;23834;48.080;11.682;2023-04-16T14:27:54;0.63;;;0.63;;
38023;SDS011;23834;48.080;11.682;2023-04-16T14:30:20;0.77;;;0.60;;
38023;SDS011;23834;48.080;11.682;2023-04-16T14:32:45;0.87;;;0.73;;
38023;SDS011;23834;48.080;11.682;2023-04-16T14:35:10;1.07;;;0.60;;